sensor_id;sensor_type;location;lat;lon;timestamp;pressure;altitude;pressure_sealevel;temperature;humidity
51099;BME280;37146;48.210;16.234;2023-05-01T00:01:04;99145.22;;;4.89;100.00
51099;BME280;37146;48.210;16.234;2023-05-01T00:03:30;99151.16;;;4.98;100.00
51099;BME280;37146;48.210;16.234;2023-05-01T00:05:59;99141.69;;;5.22;100.00
51099;BME280;37146;48.210;16.234;2023-05-01T00:08:25;99141.06;;;5.12;100.00
51099;BME280;37146;48.210;16.234;2023-05-01T00:10:50;99141.22;;;5.06;100.00
51099;BME280;37146;48.210;16.234;2023-05-01T00:13:15;99141.16;;;5.07;100.00
51099;BME280;37146;48.210;16.234;2023-05-01T00:15:45;99143.59;;;4.84;100.00
51099;BME280;37146;48.210;16.234;2023-05-01T00:18:11;99134.38;;;4.99;100.00
51099;BME280;37146;48.210;16.234;2023-05-01T00:20:36;99142.44;;;4.94;100.00
51099;BME280;37146;48.210;16.234;2023-05-01T00:23:01;99128.59;;;5.16;100.00
51099;BME280;37146;48.210;16.234;2023-05-01T00:25:27;99134.03;;;5.11;100.00
51099;BME280;37146;48.210;16.234;2023-05-01T00:27:52;99129.19;;;4.94;100.00
51099;BME280;37146;48.210;16.234;2023-05-01T00:30:17;99133.66;;;4.92;100.00
51099;BME280;37146;48.210;16.234;2023-05-01T00:32:43;99131.25;;;4.83;100.00
51099;BME280;37146;48.210;16.234;2023-05-01T00:35:08;99127.25;;;4.66;100.00
51099;BME280;37146;48.210;16.234;2023-05-01T00:37:33;99126.38;;;4.66;100.00
51099;BME280;37146;48.210;16.234;2023-05-01T00:39:59;99130.50;;;4.77;100.00
51099;BME280;37146;48.210;16.234;2023-05-01T00:42:24;99125.38;;;4.70;100.00
51099;BME280;37146;48.210;16.234;2023-05-01T00:44:49;99128.25;;;4.62;100.00
51099;BME280;37146;48.210;16.234;2023-05-01T00:47:14;99127.72;;;4.47;100.00
51099;BME280;37146;48.210;16.234;2023-05-01T00:49:41;99128.38;;;4.57;100.00
51099;BME280;37146;48.210;16.234;2023-05-01T00:52:06;99120.91;;;4.72;100.00
51099;BME280;37146;48.210;16.234;2023-05-01T00:54:33;99117.59;;;4.63;100.00
51099;BME280;37146;48.210;16.234;2023-05-01T00:56:59;99121.94;;;4.66;100.00
51099;BME280;37146;48.210;16.234;2023-05-01T00:59:25;99116.41;;;4.41;100.00
51099;BME280;37146;48.210;16.234;2023-05-01T01:01:50;99123.34;;;4.46;100.00
51099;BME280;37146;48.210;16.234;2023-05-01T01:04:16;99125.81;;;4.53;100.00
51099;BME280;37146;48.210;16.234;2023-05-01T01:14:39;99119.16;;;4.72;100.00
51099;BME280;37146;48.210;16.234;2023-05-01T01:17:16;99122.19;;;4.57;100.00
51099;BME280;37146;48.210;16.234;2023-05-01T01:22:28;99121.34;;;4.55;100.00
51099;BME280;37146;48.210;16.234;2023-05-01T01:35:28;99112.78;;;4.45;100.00
51099;BME280;37146;48.210;16.234;2023-05-01T01:38:31;99111.88;;;4.10;100.00
51099;BME280;37146;48.210;16.234;2023-05-01T01:43:16;99106.06;;;3.94;100.00
51099;BME280;37146;48.210;16.234;2023-05-01T01:45:45;99099.19;;;4.24;100.00
51099;BME280;37146;48.210;16.234;2023-05-01T01:48:12;99102.50;;;3.95;100.00
51099;BME280;37146;48.210;16.234;2023-05-01T01:50:38;99107.41;;;3.74;100.00
51099;BME280;37146;48.210;16.234;2023-05-01T01:53:05;99095.75;;;3.81;100.00
51099;BME280;37146;48.210;16.234;2023-05-01T01:55:33;99097.75;;;4.09;100.00
51099;BME280;37146;48.210;16.234;2023-05-01T01:57:59;99097.28;;;3.92;100.00
51099;BME280;37146;48.210;16.234;2023-05-01T02:00:26;99101.03;;;3.81;100.00
51099;BME280;37146;48.210;16.234;2023-05-01T02:02:52;99106.56;;;3.72;100.00
51099;BME280;37146;48.210;16.234;2023-05-01T02:05:19;99102.72;;;3.85;100.00
51099;BME280;37146;48.210;16.234;2023-05-01T02:07:46;99094.91;;;3.79;100.00
51099;BME280;37146;48.210;16.234;2023-05-01T02:10:12;99095.75;;;3.81;100.00
51099;BME280;37146;48.210;16.234;2023-05-01T02:12:39;99093.63;;;3.97;100.00
51099;BME280;37146;48.210;16.234;2023-05-01T02:15:05;99098.97;;;3.96;100.00
51099;BME280;37146;48.210;16.234;2023-05-01T02:17:32;99096.38;;;3.93;100.00
51099;BME280;37146;48.210;16.234;2023-05-01T02:19:57;99086.97;;;3.40;100.00
51099;BME280;37146;48.210;16.234;2023-05-01T02:22:23;99094.28;;;3.68;100.00
51099;BME280;37146;48.210;16.234;2023-05-01T02:24:50;99087.13;;;3.73;100.00
51099;BME280;37146;48.210;16.234;2023-05-01T02:27:18;99079.81;;;3.84;100.00
51099;BME280;37146;48.210;16.234;2023-05-01T02:29:45;99076.41;;;3.79;100.00
51099;BME280;37146;48.210;16.234;2023-05-01T02:32:10;99071.31;;;3.70;100.00
51099;BME280;37146;48.210;16.234;2023-05-01T02:34:36;99066.56;;;3.45;100.00
51099;BME280;37146;48.210;16.234;2023-05-01T02:37:02;99058.63;;;3.47;100.00
51099;BME280;37146;48.210;16.234;2023-05-01T02:39:28;99057.69;;;3.49;100.00
51099;BME280;37146;48.210;16.234;2023-05-01T02:41:53;99054.13;;;3.50;100.00
51099;BME280;37146;48.210;16.234;2023-05-01T02:44:22;99062.47;;;3.71;100.00
51099;BME280;37146;48.210;16.234;2023-05-01T02:46:48;99057.63;;;3.52;100.00
51099;BME280;37146;48.210;16.234;2023-05-01T02:49:16;99056.91;;;3.44;100.00
51099;BME280;37146;48.210;16.234;2023-05-01T02:51:42;99055.66;;;3.61;100.00
51099;BME280;37146;48.210;16.234;2023-05-01T02:54:09;99054.81;;;3.59;100.00
51099;BME280;37146;48.210;16.234;2023-05-01T02:56:34;99067.81;;;3.27;100.00
51099;BME280;37146;48.210;16.234;2023-05-01T02:59:00;99060.16;;;3.15;100.00
51099;BME280;37146;48.210;16.234;2023-05-01T03:01:25;99064.91;;;3.41;100.00
51099;BME280;37146;48.210;16.234;2023-05-01T03:03:50;99055.09;;;3.46;100.00
51099;BME280;37146;48.210;16.234;2023-05-01T03:06:16;99053.63;;;3.33;100.00
51099;BME280;37146;48.210;16.234;2023-05-01T03:08:43;99051.22;;;3.22;100.00
51099;BME280;37146;48.210;16.234;2023-05-01T03:11:08;99049.44;;;3.22;100.00
51099;BME280;37146;48.210;16.234;2023-05-01T03:13:34;99047.88;;;3.12;100.00
51099;BME280;37146;48.210;16.234;2023-05-01T03:15:59;99051.41;;;3.13;100.00
51099;BME280;37146;48.210;16.234;2023-05-01T03:18:25;99046.13;;;3.11;100.00
51099;BME280;37146;48.210;16.234;2023-05-01T03:20:51;99038.19;;;3.13;100.00
51099;BME280;37146;48.210;16.234;2023-05-01T03:23:17;99044.28;;;3.15;100.00
51099;BME280;37146;48.210;16.234;2023-05-01T03:25:42;99049.00;;;3.00;100.00
51099;BME280;37146;48.210;16.234;2023-05-01T03:28:07;99044.72;;;2.94;100.00
51099;BME280;37146;48.210;16.234;2023-05-01T03:30:34;99047.22;;;3.01;100.00
51099;BME280;37146;48.210;16.234;2023-05-01T03:33:00;99049.31;;;2.86;100.00
51099;BME280;37146;48.210;16.234;2023-05-01T03:35:25;99043.53;;;3.09;100.00
51099;BME280;37146;48.210;16.234;2023-05-01T03:37:50;99043.59;;;3.06;100.00
51099;BME280;37146;48.210;16.234;2023-05-01T03:40:16;99044.53;;;3.04;100.00
51099;BME280;37146;48.210;16.234;2023-05-01T03:42:41;99047.13;;;3.07;100.00
51099;BME280;37146;48.210;16.234;2023-05-01T03:45:07;99044.41;;;3.10;100.00
51099;BME280;37146;48.210;16.234;2023-05-01T03:47:32;99047.22;;;3.01;100.00
51099;BME280;37146;48.210;16.234;2023-05-01T03:49:57;99044.97;;;2.82;100.00
51099;BME280;37146;48.210;16.234;2023-05-01T03:52:22;99045.25;;;3.12;100.00
51099;BME280;37146;48.210;16.234;2023-05-01T03:54:48;99040.50;;;2.86;100.00
51099;BME280;37146;48.210;16.234;2023-05-01T03:57:13;99038.00;;;2.78;100.00
51099;BME280;37146;48.210;16.234;2023-05-01T03:59:39;99037.25;;;3.15;100.00
51099;BME280;37146;48.210;16.234;2023-05-01T04:02:04;99049.13;;;2.94;100.00
51099;BME280;37146;48.210;16.234;2023-05-01T04:04:30;99043.88;;;2.92;100.00
51099;BME280;37146;48.210;16.234;2023-05-01T04:06:55;99052.38;;;3.08;100.00
51099;BME280;37146;48.210;16.234;2023-05-01T04:09:21;99040.28;;;2.95;100.00
51099;BME280;37146;48.210;16.234;2023-05-01T04:11:46;99047.94;;;3.09;100.00
51099;BME280;37146;48.210;16.234;2023-05-01T04:14:11;99048.25;;;2.93;100.00
51099;BME280;37146;48.210;16.234;2023-05-01T04:16:36;99054.16;;;3.08;100.00
51099;BME280;37146;48.210;16.234;2023-05-01T04:19:02;99054.81;;;3.19;100.00
51099;BME280;37146;48.210;16.234;2023-05-01T04:21:27;99051.06;;;3.30;100.00
51099;BME280;37146;48.210;16.234;2023-05-01T04:23:52;99056.75;;;3.09;100.00
51099;BME280;37146;48.210;16.234;2023-05-01T04:26:17;99041.59;;;3.19;100.00
51099;BME280;37146;48.210;16.234;2023-05-01T04:28:43;99040.19;;;3.01;100.00
51099;BME280;37146;48.210;16.234;2023-05-01T04:31:08;99046.56;;;2.89;100.00
51099;BME280;37146;48.210;16.234;2023-05-01T04:33:33;99045.63;;;2.93;100.00
51099;BME280;37146;48.210;16.234;2023-05-01T04:35:59;99048.50;;;2.81;100.00
51099;BME280;37146;48.210;16.234;2023-05-01T04:38:24;99039.44;;;2.94;100.00
51099;BME280;37146;48.210;16.234;2023-05-01T04:40:50;99036.81;;;2.93;100.00
51099;BME280;37146;48.210;16.234;2023-05-01T04:43:16;99044.72;;;2.93;100.00
51099;BME280;37146;48.210;16.234;2023-05-01T04:45:41;99047.78;;;3.18;100.00
51099;BME280;37146;48.210;16.234;2023-05-01T04:48:06;99040.53;;;3.27;100.00
51099;BME280;37146;48.210;16.234;2023-05-01T04:50:32;99045.66;;;3.34;100.00
51099;BME280;37146;48.210;16.234;2023-05-01T04:52:57;99039.19;;;3.48;100.00
51099;BME280;37146;48.210;16.234;2023-05-01T04:55:23;99041.88;;;3.46;100.00
51099;BME280;37146;48.210;16.234;2023-05-01T04:57:48;99043.19;;;3.66;100.00
51099;BME280;37146;48.210;16.234;2023-05-01T05:00:14;99042.28;;;3.68;100.00
51099;BME280;37146;48.210;16.234;2023-05-01T05:02:39;99039.50;;;3.73;100.00
51099;BME280;37146;48.210;16.234;2023-05-01T05:05:05;99050.66;;;3.86;100.00
51099;BME280;37146;48.210;16.234;2023-05-01T05:07:30;99036.06;;;4.06;100.00
51099;BME280;37146;48.210;16.234;2023-05-01T05:09:55;99035.88;;;4.13;100.00
51099;BME280;37146;48.210;16.234;2023-05-01T05:12:21;99039.84;;;3.97;100.00
51099;BME280;37146;48.210;16.234;2023-05-01T05:14:46;99038.38;;;4.20;100.00
51099;BME280;37146;48.210;16.234;2023-05-01T05:17:12;99034.50;;;4.33;100.00
51099;BME280;37146;48.210;16.234;2023-05-01T05:19:37;99037.03;;;4.38;100.00
51099;BME280;37146;48.210;16.234;2023-05-01T05:22:02;99035.09;;;4.44;100.00
51099;BME280;37146;48.210;16.234;2023-05-01T05:24:28;99033.69;;;4.64;100.00
51099;BME280;37146;48.210;16.234;2023-05-01T05:26:53;99044.47;;;4.58;100.00
51099;BME280;37146;48.210;16.234;2023-05-01T05:29:18;99042.91;;;4.82;100.00
51099;BME280;37146;48.210;16.234;2023-05-01T05:31:44;99044.28;;;4.64;100.00
51099;BME280;37146;48.210;16.234;2023-05-01T05:34:09;99034.84;;;4.87;100.00
51099;BME280;37146;48.210;16.234;2023-05-01T05:36:35;99034.41;;;5.02;100.00
51099;BME280;37146;48.210;16.234;2023-05-01T05:39:00;99039.38;;;5.15;100.00
51099;BME280;37146;48.210;16.234;2023-05-01T05:41:25;99039.28;;;5.18;100.00
51099;BME280;37146;48.210;16.234;2023-05-01T05:43:51;99041.53;;;5.32;100.00
51099;BME280;37146;48.210;16.234;2023-05-01T05:46:18;99041.31;;;5.38;100.00
51099;BME280;37146;48.210;16.234;2023-05-01T05:48:43;99038.91;;;5.60;100.00
51099;BME280;37146;48.210;16.234;2023-05-01T05:51:08;99032.47;;;5.67;100.00
51099;BME280;37146;48.210;16.234;2023-05-01T05:53:33;99032.19;;;5.77;100.00
51099;BME280;37146;48.210;16.234;2023-05-01T05:55:58;99033.53;;;5.90;100.00
51099;BME280;37146;48.210;16.234;2023-05-01T05:58:24;99036.03;;;5.95;100.00
51099;BME280;37146;48.210;16.234;2023-05-01T06:00:49;99033.88;;;6.08;100.00
51099;BME280;37146;48.210;16.234;2023-05-01T06:03:17;99034.09;;;6.28;100.00
51099;BME280;37146;48.210;16.234;2023-05-01T06:05:42;99029.97;;;6.45;100.00
51099;BME280;37146;48.210;16.234;2023-05-01T06:08:08;99037.38;;;6.62;100.00
51099;BME280;37146;48.210;16.234;2023-05-01T06:10:36;99018.81;;;6.86;100.00
51099;BME280;37146;48.210;16.234;2023-05-01T06:13:03;99026.19;;;7.01;99.88
51099;BME280;37146;48.210;16.234;2023-05-01T06:15:28;99024.91;;;7.13;98.44
51099;BME280;37146;48.210;16.234;2023-05-01T06:17:53;99020.31;;;7.40;97.98
51099;BME280;37146;48.210;16.234;2023-05-01T06:20:19;99015.75;;;7.66;96.00
51099;BME280;37146;48.210;16.234;2023-05-01T06:22:44;99016.50;;;7.92;94.15
51099;BME280;37146;48.210;16.234;2023-05-01T06:25:10;99020.72;;;7.98;90.90
51099;BME280;37146;48.210;16.234;2023-05-01T06:27:35;99010.44;;;8.54;88.69
51099;BME280;37146;48.210;16.234;2023-05-01T06:30:01;99001.47;;;8.75;85.71
51099;BME280;37146;48.210;16.234;2023-05-01T06:32:26;99000.13;;;8.86;77.49
51099;BME280;37146;48.210;16.234;2023-05-01T06:34:51;99015.53;;;9.19;75.59
51099;BME280;37146;48.210;16.234;2023-05-01T06:37:17;99017.31;;;9.39;76.10
51099;BME280;37146;48.210;16.234;2023-05-01T06:39:42;99013.25;;;9.49;72.57
51099;BME280;37146;48.210;16.234;2023-05-01T06:42:07;99007.69;;;9.54;71.88
51099;BME280;37146;48.210;16.234;2023-05-01T06:44:35;99012.50;;;9.84;70.40
51099;BME280;37146;48.210;16.234;2023-05-01T06:47:00;99008.59;;;9.91;68.64
51099;BME280;37146;48.210;16.234;2023-05-01T06:49:26;99010.03;;;9.98;68.83
51099;BME280;37146;48.210;16.234;2023-05-01T06:51:51;99010.22;;;10.13;68.99
51099;BME280;37146;48.210;16.234;2023-05-01T06:54:16;99010.56;;;10.42;68.65
51099;BME280;37146;48.210;16.234;2023-05-01T06:56:42;99007.50;;;10.49;68.64
51099;BME280;37146;48.210;16.234;2023-05-01T06:59:07;99000.50;;;10.47;66.97
51099;BME280;37146;48.210;16.234;2023-05-01T07:01:32;98999.06;;;10.75;67.89
51099;BME280;37146;48.210;16.234;2023-05-01T07:03:58;98999.25;;;10.54;66.54
51099;BME280;37146;48.210;16.234;2023-05-01T07:06:23;98995.09;;;10.82;66.07
51099;BME280;37146;48.210;16.234;2023-05-01T07:08:48;98996.22;;;10.78;64.36
51099;BME280;37146;48.210;16.234;2023-05-01T07:11:15;99001.63;;;10.76;64.84
51099;BME280;37146;48.210;16.234;2023-05-01T07:13:41;98991.88;;;10.93;65.64
51099;BME280;37146;48.210;16.234;2023-05-01T07:16:06;98995.34;;;10.95;64.35
51099;BME280;37146;48.210;16.234;2023-05-01T07:18:31;98990.03;;;11.11;63.74
51099;BME280;37146;48.210;16.234;2023-05-01T07:20:56;98993.28;;;11.16;63.47
51099;BME280;37146;48.210;16.234;2023-05-01T07:23:22;98994.97;;;11.35;62.53
51099;BME280;37146;48.210;16.234;2023-05-01T07:25:49;98999.41;;;11.52;61.43
51099;BME280;37146;48.210;16.234;2023-05-01T07:28:14;99002.66;;;11.41;60.84
51099;BME280;37146;48.210;16.234;2023-05-01T07:30:42;98997.28;;;11.25;62.08
51099;BME280;37146;48.210;16.234;2023-05-01T07:33:07;99011.53;;;11.25;61.67
51099;BME280;37146;48.210;16.234;2023-05-01T07:35:32;99000.22;;;11.20;62.53
51099;BME280;37146;48.210;16.234;2023-05-01T07:37:58;98996.78;;;11.50;62.06
51099;BME280;37146;48.210;16.234;2023-05-01T07:40:23;98993.41;;;11.79;61.90
51099;BME280;37146;48.210;16.234;2023-05-01T07:42:48;98991.53;;;11.49;62.06
51099;BME280;37146;48.210;16.234;2023-05-01T07:45:14;98989.84;;;11.30;62.82
51099;BME280;37146;48.210;16.234;2023-05-01T07:47:39;98995.72;;;11.21;63.53
51099;BME280;37146;48.210;16.234;2023-05-01T07:50:08;98987.13;;;11.64;63.77
51099;BME280;37146;48.210;16.234;2023-05-01T07:52:33;98986.59;;;11.41;62.46
51099;BME280;37146;48.210;16.234;2023-05-01T07:54:58;98984.34;;;11.49;62.37
51099;BME280;37146;48.210;16.234;2023-05-01T07:57:24;98982.59;;;11.64;61.77
51099;BME280;37146;48.210;16.234;2023-05-01T07:59:52;98977.47;;;11.91;62.90
51099;BME280;37146;48.210;16.234;2023-05-01T08:02:18;98982.06;;;12.21;61.66
51099;BME280;37146;48.210;16.234;2023-05-01T08:04:43;98984.66;;;12.23;60.11
51099;BME280;37146;48.210;16.234;2023-05-01T08:07:10;98976.19;;;12.15;59.88
51099;BME280;37146;48.210;16.234;2023-05-01T08:09:35;98989.72;;;12.58;60.80
51099;BME280;37146;48.210;16.234;2023-05-01T08:12:00;98982.38;;;12.76;60.74
51099;BME280;37146;48.210;16.234;2023-05-01T08:14:27;98977.09;;;12.60;60.12
51099;BME280;37146;48.210;16.234;2023-05-01T08:16:53;98974.72;;;12.84;59.28
51099;BME280;37146;48.210;16.234;2023-05-01T08:19:19;98974.22;;;13.07;60.91
51099;BME280;37146;48.210;16.234;2023-05-01T08:21:44;98981.03;;;13.27;59.68
51099;BME280;37146;48.210;16.234;2023-05-01T08:24:09;98973.88;;;12.84;60.99
51099;BME280;37146;48.210;16.234;2023-05-01T08:26:35;98973.78;;;13.00;62.31
51099;BME280;37146;48.210;16.234;2023-05-01T08:29:03;98970.50;;;13.09;62.25
51099;BME280;37146;48.210;16.234;2023-05-01T08:31:28;98969.34;;;13.28;61.37
51099;BME280;37146;48.210;16.234;2023-05-01T08:33:54;98962.81;;;13.32;62.42
51099;BME280;37146;48.210;16.234;2023-05-01T08:36:19;98966.44;;;13.45;62.75
51099;BME280;37146;48.210;16.234;2023-05-01T08:38:44;98970.84;;;13.61;62.09
51099;BME280;37146;48.210;16.234;2023-05-01T08:41:14;98976.22;;;13.47;62.92
51099;BME280;37146;48.210;16.234;2023-05-01T08:43:40;98971.63;;;13.49;62.81
51099;BME280;37146;48.210;16.234;2023-05-01T08:46:05;98965.44;;;13.75;61.90
51099;BME280;37146;48.210;16.234;2023-05-01T08:48:32;98959.56;;;13.83;60.97
51099;BME280;37146;48.210;16.234;2023-05-01T08:50:59;98957.50;;;14.67;60.53
51099;BME280;37146;48.210;16.234;2023-05-01T08:53:26;98959.97;;;14.83;59.58
51099;BME280;37146;48.210;16.234;2023-05-01T08:55:52;98956.13;;;14.75;59.19
51099;BME280;37146;48.210;16.234;2023-05-01T08:58:19;98956.25;;;14.33;59.57
51099;BME280;37146;48.210;16.234;2023-05-01T09:00:45;98949.88;;;14.87;58.43
51099;BME280;37146;48.210;16.234;2023-05-01T09:03:10;98953.13;;;15.42;58.73
51099;BME280;37146;48.210;16.234;2023-05-01T09:05:37;98949.28;;;15.21;58.59
51099;BME280;37146;48.210;16.234;2023-05-01T09:08:03;98952.53;;;15.13;57.62
51099;BME280;37146;48.210;16.234;2023-05-01T09:10:28;98947.19;;;15.50;57.76
51099;BME280;37146;48.210;16.234;2023-05-01T09:12:55;98940.06;;;15.86;56.42
51099;BME280;37146;48.210;16.234;2023-05-01T09:15:24;98950.75;;;15.75;56.08
51099;BME280;37146;48.210;16.234;2023-05-01T09:17:51;98940.34;;;15.95;56.65
51099;BME280;37146;48.210;16.234;2023-05-01T09:20:16;98923.69;;;16.01;56.40
51099;BME280;37146;48.210;16.234;2023-05-01T09:22:42;98915.50;;;16.49;54.56
51099;BME280;37146;48.210;16.234;2023-05-01T09:25:08;98913.31;;;16.66;54.91
51099;BME280;37146;48.210;16.234;2023-05-01T09:27:34;98911.38;;;16.79;54.62
51099;BME280;37146;48.210;16.234;2023-05-01T09:30:00;98907.47;;;16.83;52.63
51099;BME280;37146;48.210;16.234;2023-05-01T09:32:26;98891.63;;;16.90;52.80
51099;BME280;37146;48.210;16.234;2023-05-01T09:34:55;98903.75;;;17.53;51.38
51099;BME280;37146;48.210;16.234;2023-05-01T09:37:33;98887.44;;;17.75;50.30
51099;BME280;37146;48.210;16.234;2023-05-01T09:42:26;98915.16;;;17.56;49.71
51099;BME280;37146;48.210;16.234;2023-05-01T09:44:51;98898.25;;;17.75;51.11
51099;BME280;37146;48.210;16.234;2023-05-01T09:47:20;98891.72;;;17.34;50.34
51099;BME280;37146;48.210;16.234;2023-05-01T09:49:48;98898.06;;;17.56;49.79
51099;BME280;37146;48.210;16.234;2023-05-01T09:52:14;98899.44;;;17.39;50.29
51099;BME280;37146;48.210;16.234;2023-05-01T09:54:39;98884.75;;;17.64;50.46
51099;BME280;37146;48.210;16.234;2023-05-01T09:57:05;98895.44;;;16.99;51.31
51099;BME280;37146;48.210;16.234;2023-05-01T09:59:30;98886.47;;;17.65;51.09
51099;BME280;37146;48.210;16.234;2023-05-01T10:01:58;98900.13;;;17.20;50.32
51099;BME280;37146;48.210;16.234;2023-05-01T10:04:32;98885.97;;;18.36;49.84
51099;BME280;37146;48.210;16.234;2023-05-01T10:06:59;98876.09;;;17.82;49.70
51099;BME280;37146;48.210;16.234;2023-05-01T10:09:35;98875.38;;;17.80;49.63
51099;BME280;37146;48.210;16.234;2023-05-01T10:12:00;98892.44;;;18.24;49.34
51099;BME280;37146;48.210;16.234;2023-05-01T10:14:25;98865.72;;;17.98;49.73
51099;BME280;37146;48.210;16.234;2023-05-01T10:16:53;98886.72;;;18.69;47.79
51099;BME280;37146;48.210;16.234;2023-05-01T10:19:20;98867.84;;;18.37;48.71
51099;BME280;37146;48.210;16.234;2023-05-01T10:21:46;98874.13;;;18.37;48.36
51099;BME280;37146;48.210;16.234;2023-05-01T10:24:11;98867.75;;;18.38;47.92
51099;BME280;37146;48.210;16.234;2023-05-01T10:26:36;98877.03;;;18.24;48.32
51099;BME280;37146;48.210;16.234;2023-05-01T10:29:03;98860.28;;;18.31;48.03
51099;BME280;37146;48.210;16.234;2023-05-01T10:31:28;98868.72;;;19.30;46.96
51099;BME280;37146;48.210;16.234;2023-05-01T10:33:56;98866.56;;;19.24;46.87
51099;BME280;37146;48.210;16.234;2023-05-01T10:36:42;98854.38;;;19.09;46.50
51099;BME280;37146;48.210;16.234;2023-05-01T10:44:30;98861.00;;;19.16;48.11
51099;BME280;37146;48.210;16.234;2023-05-01T10:46:55;98857.56;;;19.24;47.53
51099;BME280;37146;48.210;16.234;2023-05-01T10:49:21;98841.97;;;19.96;46.47
51099;BME280;37146;48.210;16.234;2023-05-01T10:54:25;98836.31;;;18.88;48.49
51099;BME280;37146;48.210;16.234;2023-05-01T10:56:50;98829.66;;;20.21;46.37
51099;BME280;37146;48.210;16.234;2023-05-01T10:59:16;98825.88;;;20.42;45.39
51099;BME280;37146;48.210;16.234;2023-05-01T11:01:43;98843.94;;;19.65;45.54
51099;BME280;37146;48.210;16.234;2023-05-01T11:11:59;98845.53;;;19.67;46.52
51099;BME280;37146;48.210;16.234;2023-05-01T11:14:25;98815.25;;;20.11;45.75
51099;BME280;37146;48.210;16.234;2023-05-01T11:16:50;98824.94;;;19.65;46.01
51099;BME280;37146;48.210;16.234;2023-05-01T11:21:47;98807.69;;;19.56;46.16
51099;BME280;37146;48.210;16.234;2023-05-01T11:24:12;98813.38;;;19.43;47.60
51099;BME280;37146;48.210;16.234;2023-05-01T11:26:38;98791.88;;;19.00;47.69
51099;BME280;37146;48.210;16.234;2023-05-01T11:29:05;98816.63;;;19.17;47.57
51099;BME280;37146;48.210;16.234;2023-05-01T11:31:30;98803.91;;;18.77;48.21
51099;BME280;37146;48.210;16.234;2023-05-01T11:33:56;98792.25;;;19.76;47.06
51099;BME280;37146;48.210;16.234;2023-05-01T11:36:21;98790.84;;;19.72;47.10
51099;BME280;37146;48.210;16.234;2023-05-01T11:38:54;98809.72;;;18.93;47.76
51099;BME280;37146;48.210;16.234;2023-05-01T11:41:23;98787.97;;;19.73;46.79
51099;BME280;37146;48.210;16.234;2023-05-01T11:43:49;98793.09;;;19.67;46.50
51099;BME280;37146;48.210;16.234;2023-05-01T11:46:22;98793.38;;;19.24;47.89
51099;BME280;37146;48.210;16.234;2023-05-01T11:48:48;98777.41;;;19.31;48.29
51099;BME280;37146;48.210;16.234;2023-05-01T11:51:14;98785.41;;;20.87;45.16
51099;BME280;37146;48.210;16.234;2023-05-01T11:53:39;98783.25;;;21.18;44.84
51099;BME280;37146;48.210;16.234;2023-05-01T11:56:17;98783.00;;;21.11;44.55
51099;BME280;37146;48.210;16.234;2023-05-01T11:58:42;98765.69;;;19.60;47.90
51099;BME280;37146;48.210;16.234;2023-05-01T12:01:07;98787.41;;;18.18;50.78
51099;BME280;37146;48.210;16.234;2023-05-01T12:03:42;98782.69;;;18.92;49.21
51099;BME280;37146;48.210;16.234;2023-05-01T12:06:11;98781.91;;;18.60;48.50
51099;BME280;37146;48.210;16.234;2023-05-01T12:08:40;98782.44;;;18.23;50.18
51099;BME280;37146;48.210;16.234;2023-05-01T12:11:06;98753.06;;;18.49;50.53
51099;BME280;37146;48.210;16.234;2023-05-01T12:13:32;98772.56;;;18.43;50.91
51099;BME280;37146;48.210;16.234;2023-05-01T12:15:57;98760.53;;;18.36;50.27
51099;BME280;37146;48.210;16.234;2023-05-01T12:18:25;98751.44;;;18.78;50.46
51099;BME280;37146;48.210;16.234;2023-05-01T12:20:51;98762.97;;;18.70;49.83
51099;BME280;37146;48.210;16.234;2023-05-01T12:23:17;98754.94;;;18.28;50.75
51099;BME280;37146;48.210;16.234;2023-05-01T12:25:43;98743.91;;;18.41;51.60
51099;BME280;37146;48.210;16.234;2023-05-01T12:28:12;98759.13;;;17.89;51.29
51099;BME280;37146;48.210;16.234;2023-05-01T12:30:38;98752.34;;;17.95;51.30
51099;BME280;37146;48.210;16.234;2023-05-01T12:33:07;98741.81;;;18.23;51.63
51099;BME280;37146;48.210;16.234;2023-05-01T12:35:33;98765.75;;;18.59;50.91
51099;BME280;37146;48.210;16.234;2023-05-01T12:37:58;98747.06;;;17.72;53.07
51099;BME280;37146;48.210;16.234;2023-05-01T12:40:24;98737.84;;;18.58;51.87
51099;BME280;37146;48.210;16.234;2023-05-01T12:42:55;98738.03;;;18.76;51.22
51099;BME280;37146;48.210;16.234;2023-05-01T12:45:23;98736.22;;;18.87;50.82
51099;BME280;37146;48.210;16.234;2023-05-01T12:47:48;98742.09;;;18.51;51.65
51099;BME280;37146;48.210;16.234;2023-05-01T12:50:14;98733.47;;;18.67;51.04
51099;BME280;37146;48.210;16.234;2023-05-01T12:52:39;98736.63;;;18.92;51.52
51099;BME280;37146;48.210;16.234;2023-05-01T12:55:05;98732.28;;;19.10;50.49
51099;BME280;37146;48.210;16.234;2023-05-01T12:57:32;98726.66;;;18.92;49.84
51099;BME280;37146;48.210;16.234;2023-05-01T13:00:02;98732.69;;;18.55;49.18
51099;BME280;37146;48.210;16.234;2023-05-01T13:02:29;98751.59;;;18.14;49.92
51099;BME280;37146;48.210;16.234;2023-05-01T13:05:05;98734.97;;;18.60;48.91
51099;BME280;37146;48.210;16.234;2023-05-01T13:07:30;98724.59;;;18.75;48.69
51099;BME280;37146;48.210;16.234;2023-05-01T13:09:56;98711.38;;;18.72;48.32
51099;BME280;37146;48.210;16.234;2023-05-01T13:12:22;98725.34;;;18.77;47.57
51099;BME280;37146;48.210;16.234;2023-05-01T13:14:48;98731.97;;;19.13;47.94
51099;BME280;37146;48.210;16.234;2023-05-01T13:17:21;98705.75;;;18.94;48.70
51099;BME280;37146;48.210;16.234;2023-05-01T13:19:51;98683.19;;;19.13;49.38
51099;BME280;37146;48.210;16.234;2023-05-01T13:22:17;98694.91;;;18.94;50.73
51099;BME280;37146;48.210;16.234;2023-05-01T13:24:45;98714.66;;;18.34;51.06
51099;BME280;37146;48.210;16.234;2023-05-01T13:27:11;98700.94;;;18.67;50.82
51099;BME280;37146;48.210;16.234;2023-05-01T13:29:39;98682.56;;;18.70;49.77